Time;durP1;ratioP1;P1;durP2;ratioP2;P2;SDS_P1;SDS_P2;PMS_P1;PMS_P2;Temp;Humidity;BMP_temperature;BMP_pressure;BME280_temperature;BME280_humidity;BME280_pressure;Samples;Min_cycle;Max_cycle;Signal;HPM_P1;HPM_P2
2022/03/25 00:02:21;;;;;;;16.48;9.55;;;3.60;22.10;;;;;;5089330;27;34424;-75
2022/03/25 00:04:47;;;;;;;15.18;8.90;;;3.60;22.20;;;;;;5105663;27;35514;-75
2022/03/25 00:07:13;;;;;;;16.10;8.95;;;3.60;22.30;;;;;;5105626;27;34246;-75
2022/03/25 00:09:39;;;;;;;15.18;9.25;;;3.50;22.60;;;;;;5088590;27;34245;-74
2022/03/25 00:12:06;;;;;;;15.70;9.15;;;3.40;22.70;;;;;;5106005;27;34322;-74
2022/03/25 00:14:34;;;;;;;16.20;9.45;;;3.40;22.80;;;;;;5105526;27;36431;-75
2022/03/25 00:17:00;;;;;;;14.82;8.98;;;3.30;23.10;;;;;;5105731;27;34180;-75
2022/03/25 00:19:26;;;;;;;15.35;8.98;;;3.30;23.00;;;;;;5105517;27;34109;-75
2022/03/25 00:21:53;;;;;;;12.70;8.05;;;3.30;22.90;;;;;;5105979;27;34130;-75
2022/03/25 00:24:19;;;;;;;20.00;9.30;;;3.30;23.00;;;;;;5105479;27;35709;-75
2022/03/25 00:26:45;;;;;;;15.90;9.60;;;3.20;22.80;;;;;;5123746;27;34427;-74
2022/03/25 00:29:12;;;;;;;17.02;8.40;;;3.20;23.10;;;;;;5123935;27;34208;-75
2022/03/25 00:31:38;;;;;;;13.25;8.45;;;3.20;23.30;;;;;;5088303;27;34190;-75
2022/03/25 00:34:04;;;;;;;17.38;9.45;;;3.20;23.40;;;;;;5105012;27;36575;-75
2022/03/25 00:36:29;;;;;;;15.85;9.32;;;3.10;23.30;;;;;;5088038;27;34152;-75
2022/03/25 00:38:55;;;;;;;16.35;9.65;;;3.10;23.30;;;;;;5122171;27;34095;-75
2022/03/25 00:41:23;;;;;;;14.15;8.95;;;3.10;23.50;;;;;;5088618;27;34099;-75
2022/03/25 00:43:49;;;;;;;16.27;8.98;;;3.00;23.10;;;;;;5105434;27;35591;-75
2022/03/25 00:46:15;;;;;;;19.30;9.55;;;3.00;23.10;;;;;;5109577;27;34316;-75
2022/03/25 00:48:42;;;;;;;17.00;9.15;;;2.90;23.40;;;;;;5127366;27;34293;-75
2022/03/25 00:51:09;;;;;;;16.35;9.50;;;2.90;23.70;;;;;;5143320;27;34232;-75
2022/03/25 00:53:35;;;;;;;14.02;8.73;;;2.80;23.70;;;;;;5108177;27;35737;-75
2022/03/25 00:56:01;;;;;;;21.10;9.50;;;2.80;23.80;;;;;;5108834;27;34371;-75
2022/03/25 00:58:27;;;;;;;18.45;9.13;;;2.80;23.70;;;;;;5109026;27;34408;-75
2022/03/25 01:00:53;;;;;;;17.20;8.75;;;2.70;23.70;;;;;;5108370;27;34134;-75
2022/03/25 01:03:20;;;;;;;16.75;9.82;;;2.70;24.00;;;;;;5108461;27;35711;-75
2022/03/25 01:05:46;;;;;;;18.63;9.15;;;2.60;24.10;;;;;;5092229;27;34286;-75
2022/03/25 01:08:13;;;;;;;16.90;8.85;;;2.60;23.90;;;;;;5104948;28;34394;-75
2022/03/25 01:10:39;;;;;;;15.38;8.43;;;2.60;23.90;;;;;;5139645;27;34180;-75
2022/03/25 01:13:06;;;;;;;14.68;8.50;;;2.50;23.90;;;;;;5105932;28;34155;-75
2022/03/25 01:15:32;;;;;;;19.45;9.82;;;2.50;24.20;;;;;;5106548;27;34162;-75
2022/03/25 01:17:58;;;;;;;14.77;8.23;;;2.40;24.30;;;;;;5122576;27;34220;-75
2022/03/25 01:20:24;;;;;;;17.02;9.20;;;2.40;24.20;;;;;;5139628;27;34378;-75
2022/03/25 01:22:50;;;;;;;18.08;9.63;;;2.40;24.50;;;;;;5139001;27;36263;-75
2022/03/25 01:25:17;;;;;;;16.33;9.52;;;2.30;24.20;;;;;;5106488;27;34282;-75
2022/03/25 01:27:44;;;;;;;14.90;9.25;;;2.30;24.30;;;;;;5106136;28;34257;-75
2022/03/25 01:30:10;;;;;;;15.05;8.45;;;2.30;24.20;;;;;;5139035;27;34484;-75
2022/03/25 01:32:37;;;;;;;15.35;8.55;;;2.30;24.70;;;;;;5121728;27;34134;-75
2022/03/25 01:35:06;;;;;;;19.75;8.57;;;2.20;24.60;;;;;;5104876;28;34411;-75
2022/03/25 01:37:33;;;;;;;17.10;8.20;;;2.20;24.50;;;;;;5139247;27;34138;-75
2022/03/25 01:40:00;;;;;;;15.35;8.48;;;2.20;24.40;;;;;;5106519;28;34171;-75
2022/03/25 01:42:31;;;;;;;16.90;9.65;;;2.20;24.50;;;;;;5105213;28;35000;-75
2022/03/25 01:44:57;;;;;;;18.08;9.80;;;2.10;25.50;;;;;;5139125;27;34125;-75
2022/03/25 01:47:28;;;;;;;15.27;8.60;;;2.10;25.60;;;;;;5139380;27;34246;-75
2022/03/25 01:49:56;;;;;;;17.73;9.82;;;2.10;25.90;;;;;;5121283;27;34696;-75
2022/03/25 01:52:22;;;;;;;16.60;8.85;;;2.00;25.20;;;;;;5139253;27;35661;-75
2022/03/25 01:54:48;;;;;;;19.95;9.32;;;2.00;25.30;;;;;;5104968;28;34298;-75
2022/03/25 01:57:14;;;;;;;24.25;9.77;;;2.00;25.50;;;;;;5137616;27;34312;-75
2022/03/25 01:59:40;;;;;;;16.90;9.55;;;2.00;25.50;;;;;;5105434;28;34283;-75
2022/03/25 02:02:07;;;;;;;16.08;9.63;;;2.00;25.20;;;;;;5138149;27;35761;-75
2022/03/25 02:04:34;;;;;;;18.50;9.82;;;1.90;25.70;;;;;;5138634;27;34220;-76
2022/03/25 02:07:00;;;;;;;20.05;9.77;;;1.90;25.50;;;;;;5121154;27;34161;-75
2022/03/25 02:09:26;;;;;;;19.48;9.50;;;1.90;25.30;;;;;;5138554;27;34443;-75
2022/03/25 02:11:52;;;;;;;14.75;8.55;;;1.90;25.30;;;;;;5138601;27;35608;-75
2022/03/25 02:14:18;;;;;;;15.35;9.38;;;1.90;25.50;;;;;;5105659;28;34359;-75
2022/03/25 02:16:46;;;;;;;18.33;9.80;;;1.80;25.60;;;;;;5138872;27;34354;-75
2022/03/25 02:19:16;;;;;;;14.90;9.18;;;1.80;25.40;;;;;;5139298;27;34165;-75
2022/03/25 02:21:42;;;;;;;19.48;9.52;;;1.80;25.30;;;;;;5138837;27;36631;-76
2022/03/25 02:24:10;;;;;;;18.33;9.05;;;1.80;25.60;;;;;;5138835;27;34423;-76
2022/03/25 02:26:37;;;;;;;24.70;8.52;;;1.70;25.60;;;;;;5121381;27;34302;-76
2022/03/25 02:29:05;;;;;;;15.60;8.40;;;1.70;25.50;;;;;;5121375;27;34244;-75
2022/03/25 02:31:31;;;;;;;17.42;8.85;;;1.70;25.50;;;;;;5104453;28;34547;-76
2022/03/25 02:34:06;;;;;;;17.98;9.85;;;1.70;25.30;;;;;;5138411;27;34214;-76
2022/03/25 02:36:37;;;;;;;15.90;8.65;;;1.60;25.20;;;;;;5120086;27;34330;-76
2022/03/25 02:39:05;;;;;;;17.38;9.85;;;1.60;25.80;;;;;;5138308;27;34130;-76
2022/03/25 02:41:31;;;;;;;21.67;10.13;;;1.60;25.30;;;;;;5137541;27;36482;-76
2022/03/25 02:43:59;;;;;;;20.50;9.63;;;1.60;25.50;;;;;;5103736;28;34201;-77
2022/03/25 02:46:25;;;;;;;15.45;8.88;;;1.60;25.70;;;;;;5138412;27;34306;-76
2022/03/25 02:48:51;;;;;;;19.63;9.27;;;1.50;25.90;;;;;;5138545;27;34039;-76
2022/03/25 02:51:17;;;;;;;15.98;9.05;;;1.50;26.20;;;;;;5138287;27;35630;-76
2022/03/25 02:53:43;;;;;;;22.45;9.00;;;1.50;26.20;;;;;;5104685;28;34299;-76
2022/03/25 02:56:09;;;;;;;16.42;10.07;;;1.40;26.10;;;;;;5138379;27;34347;-77
2022/03/25 02:58:35;;;;;;;21.25;9.85;;;1.40;26.10;;;;;;5103485;28;34113;-77
2022/03/25 03:01:01;;;;;;;15.13;9.38;;;1.40;26.30;;;;;;5121191;27;34125;-77
2022/03/25 03:03:27;;;;;;;16.05;8.93;;;1.40;26.10;;;;;;5138443;27;34247;-77
2022/03/25 03:05:53;;;;;;;23.05;9.35;;;1.40;26.10;;;;;;5104767;28;34366;-77
2022/03/25 03:08:19;;;;;;;16.60;9.32;;;1.40;26.10;;;;;;5137489;27;34161;-77
2022/03/25 03:10:45;;;;;;;16.40;9.32;;;1.30;26.50;;;;;;5137689;27;35628;-77
2022/03/25 03:13:11;;;;;;;15.55;8.85;;;1.30;26.60;;;;;;5137714;27;34228;-77
2022/03/25 03:15:37;;;;;;;18.05;9.32;;;1.20;26.50;;;;;;5138266;27;34098;-77
2022/03/25 03:18:03;;;;;;;19.13;9.25;;;1.20;26.20;;;;;;5138589;27;34395;-77
2022/03/25 03:20:30;;;;;;;18.40;9.55;;;1.20;26.30;;;;;;5103943;28;36024;-77
2022/03/25 03:22:57;;;;;;;19.35;9.35;;;1.20;26.20;;;;;;5121001;27;34236;-77
2022/03/25 03:25:24;;;;;;;19.05;9.30;;;1.20;26.20;;;;;;5120956;27;34186;-77
2022/03/25 03:27:50;;;;;;;15.43;9.15;;;1.20;26.90;;;;;;5137579;27;34164;-77
2022/03/25 03:30:16;;;;;;;16.50;9.45;;;1.10;26.70;;;;;;5138003;27;36036;-77
2022/03/25 03:32:42;;;;;;;15.88;8.68;;;1.10;26.70;;;;;;5139301;27;34676;-78
2022/03/25 03:35:09;;;;;;;18.00;9.63;;;1.10;26.60;;;;;;5138844;27;34203;-77
2022/03/25 03:37:44;;;;;;;19.63;10.68;;;1.10;26.40;;;;;;5137737;27;34493;-77
2022/03/25 03:40:11;;;;;;;13.95;8.63;;;1.10;27.10;;;;;;5086853;28;35972;-77
2022/03/25 03:42:38;;;;;;;18.77;9.55;;;1.10;26.40;;;;;;5106161;28;34176;-77
2022/03/25 03:45:07;;;;;;;19.33;9.23;;;1.10;26.40;;;;;;5121670;27;34348;-77
2022/03/25 03:47:33;;;;;;;20.17;9.65;;;1.10;26.90;;;;;;5105393;28;34481;-77
2022/03/25 03:49:59;;;;;;;21.05;9.48;;;1.00;26.70;;;;;;5121906;27;35841;-77
2022/03/25 03:52:26;;;;;;;19.20;9.18;;;1.00;26.60;;;;;;5106051;28;34278;-77
2022/03/25 03:54:52;;;;;;;17.20;9.02;;;1.00;26.60;;;;;;5139491;27;34263;-77
2022/03/25 03:57:18;;;;;;;17.38;9.70;;;1.00;26.80;;;;;;5139184;27;34265;-78
2022/03/25 03:59:44;;;;;;;16.30;9.88;;;1.00;27.10;;;;;;5138668;27;35792;-77
2022/03/25 04:02:10;;;;;;;17.13;9.30;;;1.00;26.90;;;;;;5138784;27;34451;-77
2022/03/25 04:04:36;;;;;;;18.55;9.80;;;0.90;27.00;;;;;;5138078;27;34383;-77
2022/03/25 04:07:02;;;;;;;18.65;10.73;;;0.90;26.60;;;;;;5138378;27;34181;-77
2022/03/25 04:09:28;;;;;;;23.60;10.57;;;0.90;26.90;;;;;;5104554;28;34304;-77
2022/03/25 04:11:54;;;;;;;16.25;9.25;;;0.90;26.80;;;;;;5120250;27;34264;-77
2022/03/25 04:14:21;;;;;;;19.70;9.95;;;0.80;26.90;;;;;;5137467;27;34114;-77
2022/03/25 04:16:47;;;;;;;19.98;10.00;;;0.80;27.10;;;;;;5136450;27;34299;-77
2022/03/25 04:19:14;;;;;;;17.55;9.20;;;0.80;27.40;;;;;;5101672;28;36619;-77
2022/03/25 04:21:39;;;;;;;19.33;10.20;;;0.70;27.40;;;;;;5119234;27;34285;-77
2022/03/25 04:24:06;;;;;;;18.92;9.10;;;0.80;27.50;;;;;;5103399;28;34166;-77
2022/03/25 04:26:32;;;;;;;18.88;10.07;;;0.70;27.80;;;;;;5120218;27;34206;-77
2022/03/25 04:28:58;;;;;;;19.10;9.95;;;0.70;27.80;;;;;;5102234;28;35665;-77
2022/03/25 04:31:24;;;;;;;15.50;8.95;;;0.60;27.80;;;;;;5103548;28;34348;-77
2022/03/25 04:33:50;;;;;;;20.15;10.05;;;0.60;28.00;;;;;;5136382;27;34490;-77
2022/03/25 04:36:16;;;;;;;20.83;10.35;;;0.60;27.70;;;;;;5136714;27;34134;-77
2022/03/25 04:38:43;;;;;;;18.00;9.98;;;0.60;27.90;;;;;;5102064;28;35832;-77
2022/03/25 04:41:10;;;;;;;19.05;9.57;;;0.60;27.90;;;;;;5136927;27;34303;-77
2022/03/25 04:43:37;;;;;;;19.58;10.75;;;0.60;27.90;;;;;;5136376;27;34030;-77
2022/03/25 04:46:04;;;;;;;19.95;10.90;;;0.60;28.10;;;;;;5119057;27;34082;-77
2022/03/25 04:48:31;;;;;;;18.63;9.55;;;0.60;27.70;;;;;;5102748;28;34106;-77
2022/03/25 04:50:57;;;;;;;17.60;9.40;;;0.60;27.60;;;;;;5135724;27;34201;-77
2022/03/25 04:53:23;;;;;;;16.33;9.80;;;0.60;27.90;;;;;;5119084;27;34271;-77
2022/03/25 04:55:48;;;;;;;17.50;9.93;;;0.50;27.80;;;;;;5103832;28;34177;-77
2022/03/25 04:58:14;;;;;;;23.17;10.95;;;0.60;27.70;;;;;;5084658;28;35619;-77
2022/03/25 05:00:41;;;;;;;16.08;9.48;;;0.60;27.60;;;;;;5101659;28;34229;-77
2022/03/25 05:03:07;;;;;;;19.83;10.27;;;0.50;28.00;;;;;;5136223;27;34490;-77
2022/03/25 05:05:34;;;;;;;18.92;9.20;;;0.50;27.80;;;;;;5102116;28;34690;-77
2022/03/25 05:08:00;;;;;;;20.70;10.60;;;0.50;27.60;;;;;;5102345;28;34904;-77
2022/03/25 05:10:27;;;;;;;18.23;10.30;;;0.50;27.70;;;;;;5101500;28;34433;-77
2022/03/25 05:12:53;;;;;;;20.75;10.95;;;0.50;27.90;;;;;;5101452;28;34134;-77
2022/03/25 05:15:19;;;;;;;20.88;9.77;;;0.50;27.90;;;;;;5102982;28;34219;-77
2022/03/25 05:17:51;;;;;;;19.02;10.25;;;0.50;27.90;;;;;;5135090;27;35763;-77
2022/03/25 05:20:18;;;;;;;17.65;9.73;;;0.50;27.90;;;;;;5135474;27;34212;-77
2022/03/25 05:22:45;;;;;;;18.42;10.75;;;0.50;28.20;;;;;;5118694;27;34476;-77
2022/03/25 05:25:11;;;;;;;16.02;9.02;;;0.40;27.80;;;;;;5101584;28;34582;-77
2022/03/25 05:27:47;;;;;;;19.77;10.35;;;0.40;27.70;;;;;;5102098;28;34510;-77
2022/03/25 05:30:14;;;;;;;18.58;9.82;;;0.40;28.40;;;;;;5085607;28;34183;-77
2022/03/25 05:32:42;;;;;;;21.02;10.27;;;0.40;27.70;;;;;;5139094;27;34337;-77
2022/03/25 05:35:09;;;;;;;18.02;10.32;;;0.40;28.40;;;;;;5105511;28;34145;-77
2022/03/25 05:37:36;;;;;;;23.63;11.30;;;0.40;28.30;;;;;;5105501;28;34504;-76
2022/03/25 05:40:05;;;;;;;21.25;11.52;;;0.40;28.10;;;;;;5104942;28;34343;-77
2022/03/25 05:42:32;;;;;;;20.63;11.25;;;0.40;28.00;;;;;;5104654;28;34173;-77
2022/03/25 05:44:58;;;;;;;21.10;10.90;;;0.40;28.00;;;;;;5105787;28;34338;-77
2022/03/25 05:47:24;;;;;;;17.05;9.85;;;0.40;28.10;;;;;;5104073;28;36141;-77
2022/03/25 05:49:50;;;;;;;19.10;9.60;;;0.40;27.90;;;;;;5121416;27;34334;-77
2022/03/25 05:52:16;;;;;;;21.10;11.18;;;0.40;27.70;;;;;;5138628;27;34211;-77
2022/03/25 05:54:42;;;;;;;20.23;10.70;;;0.50;27.90;;;;;;5104266;28;34055;-77
2022/03/25 05:57:08;;;;;;;19.10;10.63;;;0.50;27.90;;;;;;5104346;28;36764;-77
2022/03/25 05:59:34;;;;;;;20.17;10.70;;;0.50;28.10;;;;;;5105169;28;34181;-77
2022/03/25 06:02:00;;;;;;;27.27;11.88;;;0.60;28.10;;;;;;5104209;28;34123;-77
2022/03/25 06:04:26;;;;;;;19.95;11.38;;;0.60;28.20;;;;;;5103868;28;34558;-77
2022/03/25 06:06:52;;;;;;;20.42;11.18;;;0.60;28.40;;;;;;5103029;28;35462;-77
2022/03/25 06:09:18;;;;;;;19.60;10.65;;;0.70;28.20;;;;;;5104663;28;34391;-77
2022/03/25 06:11:44;;;;;;;19.48;10.10;;;0.80;28.20;;;;;;5104372;28;34252;-77
2022/03/25 06:14:10;;;;;;;19.73;10.82;;;1.00;28.10;;;;;;5104484;28;34192;-77
2022/03/25 06:16:36;;;;;;;21.17;11.80;;;1.20;28.00;;;;;;5103835;28;35772;-77
2022/03/25 06:19:02;;;;;;;23.05;11.63;;;1.50;27.80;;;;;;5104156;28;34095;-77
2022/03/25 06:21:28;;;;;;;25.67;12.32;;;1.70;27.30;;;;;;5106458;28;34175;-77
2022/03/25 06:23:53;;;;;;;27.33;12.07;;;2.00;26.80;;;;;;5104839;28;34162;-77
2022/03/25 06:26:20;;;;;;;19.35;11.25;;;2.30;26.20;;;;;;5104854;28;35765;-77
2022/03/25 06:28:46;;;;;;;22.88;12.32;;;2.60;25.60;;;;;;5106484;28;34338;-77
2022/03/25 06:31:12;;;;;;;24.02;12.75;;;2.90;24.90;;;;;;5107743;28;34389;-78
2022/03/25 06:33:37;;;;;;;25.10;12.93;;;3.20;24.30;;;;;;5106609;28;34424;-78
2022/03/25 06:36:05;;;;;;;20.35;11.88;;;3.50;23.90;;;;;;5105485;28;35837;-77
2022/03/25 06:38:31;;;;;;;22.90;12.88;;;3.80;23.60;;;;;;5105375;28;34212;-77
2022/03/25 06:40:57;;;;;;;23.83;11.50;;;4.10;23.00;;;;;;5105196;27;34164;-77
2022/03/25 06:43:23;;;;;;;24.88;10.90;;;4.50;22.50;;;;;;5105312;28;34092;-77
2022/03/25 06:45:50;;;;;;;24.25;11.80;;;4.70;22.00;;;;;;5106698;28;35685;-78
2022/03/25 06:48:16;;;;;;;24.80;12.00;;;4.90;21.60;;;;;;5108040;28;34265;-78
2022/03/25 06:50:42;;;;;;;19.90;11.85;;;5.10;21.40;;;;;;5123914;27;34206;-78
2022/03/25 06:53:09;;;;;;;21.08;12.55;;;5.30;21.20;;;;;;5108428;28;34316;-78
2022/03/25 06:55:36;;;;;;;24.20;11.60;;;5.50;21.00;;;;;;5109394;28;35627;-77
2022/03/25 06:58:03;;;;;;;21.23;12.57;;;5.70;20.90;;;;;;5127042;27;34162;-77
2022/03/25 07:00:29;;;;;;;25.98;12.85;;;5.90;20.80;;;;;;5128277;27;34405;-77
2022/03/25 07:02:55;;;;;;;26.13;12.63;;;6.10;20.70;;;;;;5110391;28;34157;-77
2022/03/25 07:05:24;;;;;;;23.48;12.38;;;6.30;20.50;;;;;;5110151;28;35506;-77
2022/03/25 07:07:50;;;;;;;24.05;12.00;;;6.50;20.50;;;;;;5109566;28;34118;-77
2022/03/25 07:10:17;;;;;;;23.83;12.02;;;6.70;20.40;;;;;;5109661;28;34213;-76
2022/03/25 07:12:45;;;;;;;20.02;12.00;;;6.80;20.30;;;;;;5110093;27;34214;-76
2022/03/25 07:15:12;;;;;;;27.45;13.05;;;7.00;20.30;;;;;;5100032;28;35923;-77
2022/03/25 07:17:40;;;;;;;26.25;13.68;;;7.20;20.30;;;;;;5106404;27;34315;-76
2022/03/25 07:20:06;;;;;;;28.75;13.40;;;7.30;20.10;;;;;;5096954;28;34356;-76
2022/03/25 07:22:34;;;;;;;24.98;13.40;;;7.50;20.10;;;;;;5121524;27;35351;-76
2022/03/25 07:25:00;;;;;;;24.20;12.93;;;7.60;20.00;;;;;;5104921;27;34361;-75
2022/03/25 07:27:26;;;;;;;23.95;13.68;;;7.70;20.00;;;;;;5097862;28;34404;-76
2022/03/25 07:29:52;;;;;;;22.90;12.57;;;7.80;20.00;;;;;;5103536;28;34122;-76
2022/03/25 07:32:18;;;;;;;25.92;14.35;;;7.90;20.10;;;;;;5090396;28;34195;-76
2022/03/25 07:34:44;;;;;;;23.70;13.23;;;8.00;20.60;;;;;;5118494;27;35765;-76
2022/03/25 07:37:10;;;;;;;26.35;14.43;;;8.10;20.20;;;;;;5099151;28;34291;-76
2022/03/25 07:39:36;;;;;;;24.30;14.32;;;8.20;20.00;;;;;;5106195;28;34344;-75
2022/03/25 07:42:02;;;;;;;26.50;13.85;;;8.20;20.00;;;;;;5097287;28;34188;-76
2022/03/25 07:44:28;;;;;;;22.58;13.05;;;8.40;20.00;;;;;;5104347;28;35806;-76
2022/03/25 07:46:55;;;;;;;25.30;13.63;;;8.50;20.10;;;;;;5105734;28;34221;-76
2022/03/25 07:49:21;;;;;;;31.20;13.80;;;8.60;20.00;;;;;;5099441;28;34124;-75
2022/03/25 07:51:47;;;;;;;31.27;14.40;;;8.60;20.00;;;;;;5105003;27;34167;-76
2022/03/25 07:54:13;;;;;;;30.67;14.50;;;8.70;20.80;;;;;;5097955;28;35875;-75
2022/03/25 07:56:39;;;;;;;28.13;14.57;;;8.70;20.00;;;;;;5103943;28;34309;-75
2022/03/25 07:59:05;;;;;;;23.48;14.80;;;8.70;20.00;;;;;;5097066;28;34214;-76
2022/03/25 08:01:31;;;;;;;26.15;14.57;;;8.80;20.00;;;;;;5104267;28;34473;-74
2022/03/25 08:03:57;;;;;;;26.63;13.90;;;8.90;20.00;;;;;;5104027;28;35473;-75
2022/03/25 08:06:23;;;;;;;26.58;14.95;;;8.90;20.00;;;;;;5104444;27;34554;-75
2022/03/25 08:08:49;;;;;;;28.52;14.18;;;9.00;20.00;;;;;;5107798;27;34360;-75
2022/03/25 08:11:20;;;;;;;24.60;15.00;;;9.20;20.10;;;;;;5125932;27;34137;-76
2022/03/25 08:13:47;;;;;;;30.00;14.65;;;9.30;20.00;;;;;;5106602;27;35847;-75
2022/03/25 08:16:16;;;;;;;29.00;14.75;;;9.40;19.90;;;;;;5107539;27;34141;-76
2022/03/25 08:18:43;;;;;;;27.27;14.13;;;9.60;19.80;;;;;;5106638;27;34235;-76
2022/03/25 08:21:11;;;;;;;22.65;13.95;;;9.70;19.50;;;;;;5124631;27;34144;-75
2022/03/25 08:29:00;;;;;;;26.85;14.93;;;10.40;19.30;;;;;;5125163;27;34192;-75
2022/03/25 08:31:28;;;;;;;24.42;13.57;;;10.60;19.10;;;;;;5125089;27;34125;-75
2022/03/25 08:33:54;;;;;;;26.00;14.63;;;10.80;18.90;;;;;;5106782;27;36479;-76
2022/03/25 08:36:20;;;;;;;28.88;15.15;;;10.90;18.80;;;;;;5105986;27;34072;-76
2022/03/25 08:38:47;;;;;;;23.70;14.10;;;11.10;18.60;;;;;;5126150;27;34073;-76
2022/03/25 08:41:15;;;;;;;35.10;15.35;;;11.40;18.60;;;;;;5146122;27;34779;-75
2022/03/25 08:43:42;;;;;;;26.05;14.63;;;11.50;18.30;;;;;;5127003;27;35908;-76
2022/03/25 08:46:08;;;;;;;25.90;15.02;;;11.80;18.30;;;;;;5128281;27;34271;-75
2022/03/25 08:48:34;;;;;;;25.85;14.55;;;11.90;18.00;;;;;;5127925;27;34188;-76
2022/03/25 08:51:01;;;;;;;25.33;14.60;;;12.10;18.00;;;;;;5127754;27;34132;-76
2022/03/25 08:53:27;;;;;;;26.20;14.57;;;12.30;17.80;;;;;;5127404;27;35890;-76
2022/03/25 08:55:53;;;;;;;29.55;15.77;;;12.50;17.60;;;;;;5110047;27;34158;-75
2022/03/25 08:58:19;;;;;;;24.88;15.63;;;12.80;17.60;;;;;;5128209;27;34183;-75
2022/03/25 09:00:45;;;;;;;31.75;15.13;;;13.00;17.30;;;;;;5146013;27;34279;-76
2022/03/25 09:03:30;;;;;;;28.40;15.07;;;13.30;17.10;;;;;;5110054;27;35716;-76
2022/03/25 09:05:56;;;;;;;24.65;15.00;;;13.60;15.00;;;;;;5129011;27;34065;-76
2022/03/25 09:08:22;;;;;;;21.80;13.77;;;13.80;16.60;;;;;;5113770;27;34374;-75
2022/03/25 09:10:48;;;;;;;26.27;15.85;;;14.10;16.50;;;;;;5114329;27;34088;-76
2022/03/25 09:13:14;;;;;;;28.05;16.25;;;14.40;16.40;;;;;;5131407;27;35524;-76
2022/03/25 09:15:40;;;;;;;25.25;15.52;;;14.60;15.90;;;;;;5130890;27;34184;-76
2022/03/25 09:18:06;;;;;;;28.02;16.05;;;14.80;15.60;;;;;;5149370;27;34197;-76
2022/03/25 09:20:33;;;;;;;30.77;15.80;;;15.10;15.50;;;;;;5112400;27;34085;-75
2022/03/25 09:22:58;;;;;;;32.53;16.50;;;15.30;15.40;;;;;;5129814;27;35804;-76
2022/03/25 09:25:25;;;;;;;28.67;14.65;;;15.40;15.00;;;;;;5129311;27;34350;-77
2022/03/25 09:27:51;;;;;;;32.45;15.10;;;15.70;15.10;;;;;;5129752;27;34511;-75
2022/03/25 09:30:17;;;;;;;25.73;15.57;;;15.90;15.00;;;;;;5117636;27;34353;-76
2022/03/25 09:32:43;;;;;;;27.80;16.10;;;16.10;14.80;;;;;;5125872;27;35525;-75
2022/03/25 09:35:09;;;;;;;25.52;14.70;;;16.30;14.40;;;;;;5119328;27;34125;-75
2022/03/25 09:37:38;;;;;;;29.98;15.55;;;16.50;14.10;;;;;;5110487;27;34392;-76
2022/03/25 09:40:08;;;;;;;26.38;15.25;;;16.80;13.20;;;;;;5114353;27;34106;-75
2022/03/25 09:42:36;;;;;;;24.67;14.65;;;17.00;13.20;;;;;;5130610;27;35648;-76
2022/03/25 09:45:04;;;;;;;24.52;14.85;;;17.30;13.30;;;;;;5102713;27;34668;-76
2022/03/25 09:47:31;;;;;;;24.85;14.45;;;17.50;12.70;;;;;;5111105;27;34285;-76
2022/03/25 09:49:59;;;;;;;27.20;14.75;;;17.80;13.00;;;;;;5127850;27;34130;-77
2022/03/25 09:52:28;;;;;;;24.48;14.82;;;18.10;12.60;;;;;;5144656;27;34131;-76
2022/03/25 09:54:54;;;;;;;26.65;15.15;;;18.40;12.10;;;;;;5130602;27;34350;-76
2022/03/25 09:57:20;;;;;;;23.38;14.13;;;18.60;12.20;;;;;;5121990;27;34124;-76
2022/03/25 09:59:46;;;;;;;26.70;14.65;;;18.90;11.90;;;;;;5110660;27;34024;-75
2022/03/25 10:02:12;;;;;;;21.70;13.25;;;19.10;11.70;;;;;;5110050;27;35511;-76
2022/03/25 10:04:43;;;;;;;21.85;14.00;;;19.40;11.30;;;;;;5128807;27;34202;-76
2022/03/25 10:07:27;;;;;;;23.35;13.77;;;19.60;10.20;;;;;;5089152;28;34192;-76
2022/03/25 10:10:10;;;;;;;23.45;14.38;;;19.90;8.30;;;;;;5088882;27;34071;-76
2022/03/25 10:12:38;;;;;;;23.67;13.93;;;20.10;5.80;;;;;;5136243;27;35534;-76
2022/03/25 10:15:21;;;;;;;28.02;13.45;;;20.30;10.30;;;;;;5115777;27;34108;-76
2022/03/25 10:18:04;;;;;;;24.30;13.43;;;20.60;6.90;;;;;;5103301;27;34057;-76
2022/03/25 10:20:34;;;;;;;20.95;12.05;;;20.80;5.20;;;;;;5080831;28;34113;-76
2022/03/25 10:23:17;;;;;;;23.88;12.73;;;20.90;6.60;;;;;;5102951;27;35184;-76
2022/03/25 10:26:00;;;;;;;18.58;11.48;;;20.90;2.20;;;;;;5103880;28;34629;-76
2022/03/25 10:28:29;;;;;;;22.10;12.07;;;21.10;2.60;;;;;;5100704;27;34245;-76
2022/03/25 10:31:07;;;;;;;20.55;11.80;;;21.30;7.30;;;;;;5123483;27;34137;-76
2022/03/25 10:33:36;;;;;;;20.35;11.55;;;21.50;3.00;;;;;;5085169;28;35966;-75
2022/03/25 10:36:08;;;;;;;19.00;11.43;;;21.50;4.90;;;;;;5131792;27;34129;-76
2022/03/25 10:38:53;;;;;;;20.15;10.88;;;21.60;2.50;;;;;;5105462;27;34238;-75
2022/03/25 10:41:22;;;;;;;18.83;10.68;;;21.70;1.00;;;;;;5117419;27;34286;-75
2022/03/25 10:43:55;;;;;;;20.42;10.77;;;21.80;5.10;;;;;;5087273;28;35511;-76
2022/03/25 10:46:39;;;;;;;17.10;11.18;;;21.80;3.90;;;;;;5099268;27;34333;-76
2022/03/25 10:49:08;;;;;;;19.75;10.77;;;21.70;2.50;;;;;;5105134;27;34252;-76
2022/03/25 10:51:36;;;;;;;19.98;11.88;;;21.70;5.40;;;;;;5088575;28;34373;-75
2022/03/25 10:54:08;;;;;;;19.40;11.32;;;21.90;5.70;;;;;;5105439;28;34485;-76
2022/03/25 10:56:50;;;;;;;17.83;10.43;;;22.10;3.30;;;;;;5135448;27;34203;-76
2022/03/25 10:59:29;;;;;;;21.58;11.85;;;22.20;1.00;;;;;;5133100;27;34147;-76
2022/03/25 11:01:57;;;;;;;17.75;11.35;;;22.20;1.00;;;;;;5104815;27;34122;-76
2022/03/25 11:04:24;;;;;;;17.75;11.50;;;22.30;3.40;;;;;;5133503;27;35574;-76
2022/03/25 11:06:52;;;;;;;19.52;11.43;;;22.30;4.90;;;;;;5087015;28;34241;-76
2022/03/25 11:09:19;;;;;;;23.48;11.77;;;22.30;4.70;;;;;;5132842;27;34270;-76
2022/03/25 11:11:47;;;;;;;18.77;11.40;;;22.30;4.60;;;;;;5104402;27;34396;-76
2022/03/25 11:14:14;;;;;;;18.52;11.82;;;22.40;4.20;;;;;;5098695;28;35203;-76
2022/03/25 11:16:43;;;;;;;19.77;11.18;;;22.40;3.90;;;;;;5104101;27;34213;-76
2022/03/25 11:19:10;;;;;;;18.70;12.05;;;22.30;3.40;;;;;;5131879;27;34161;-76
2022/03/25 11:21:44;;;;;;;22.40;12.60;;;22.40;3.90;;;;;;5104654;27;34198;-76
2022/03/25 11:24:31;;;;;;;19.23;12.13;;;22.50;1.00;;;;;;5107549;27;35529;-76
2022/03/25 11:27:00;;;;;;;21.70;12.23;;;22.60;1.00;;;;;;5104735;28;34147;-76
2022/03/25 11:29:27;;;;;;;23.02;12.70;;;22.60;3.10;;;;;;5133532;27;34229;-76
2022/03/25 11:32:11;;;;;;;25.88;13.60;;;22.70;3.40;;;;;;5103911;27;33968;-75
2022/03/25 11:35:04;;;;;;;22.13;12.23;;;22.70;1.00;;;;;;5135112;27;35752;-75
2022/03/25 11:37:32;;;;;;;22.92;11.75;;;22.70;1.00;;;;;;5117254;27;34233;-76
2022/03/25 11:40:24;;;;;;;22.10;12.93;;;22.70;2.90;;;;;;5103990;28;34099;-76
2022/03/25 11:42:53;;;;;;;23.35;12.98;;;22.70;1.00;;;;;;5105426;27;34188;-77
2022/03/25 11:45:34;;;;;;;21.98;13.07;;;22.70;1.90;;;;;;5105242;28;34431;-76
2022/03/25 11:48:38;;;;;;;21.58;12.60;;;22.70;1.00;;;;;;5113732;27;34162;-76
2022/03/25 11:51:25;;;;;;;21.63;12.70;;;22.70;1.00;;;;;;5087439;28;34148;-75
2022/03/25 11:53:51;;;;;;;22.10;12.85;;;22.60;1.00;;;;;;5085025;28;34195;-76
2022/03/25 11:56:17;;;;;;;19.98;12.32;;;22.70;2.80;;;;;;5132305;27;36296;-76
2022/03/25 11:59:00;;;;;;;22.55;12.52;;;22.70;2.60;;;;;;5105164;27;34158;-77
2022/03/25 12:01:26;;;;;;;18.58;11.52;;;22.60;1.00;;;;;;5133978;27;34021;-76
2022/03/25 12:03:56;;;;;;;21.27;12.68;;;22.60;2.60;;;;;;5102485;27;34415;-76
2022/03/25 12:06:27;;;;;;;18.02;11.73;;;22.60;1.70;;;;;;5131545;27;35873;-76
2022/03/25 12:08:57;;;;;;;19.42;11.55;;;22.70;1.00;;;;;;5106728;27;34161;-76
2022/03/25 12:11:53;;;;;;;19.25;12.05;;;22.60;1.00;;;;;;5105974;27;34217;-76
2022/03/25 12:14:26;;;;;;;19.08;11.95;;;22.60;1.00;;;;;;5106051;27;34107;-76
2022/03/25 12:16:54;;;;;;;20.80;12.30;;;22.60;1.00;;;;;;5105695;27;35871;-76
2022/03/25 12:19:43;;;;;;;22.85;12.00;;;22.50;1.40;;;;;;5107017;27;34139;-76
2022/03/25 12:22:30;;;;;;;22.17;12.32;;;22.60;1.00;;;;;;5111251;27;34320;-75
2022/03/25 12:24:58;;;;;;;18.80;11.82;;;22.60;1.00;;;;;;5090753;27;34465;-77
2022/03/25 12:27:25;;;;;;;16.17;10.55;;;22.60;1.30;;;;;;5106680;27;35613;-76
2022/03/25 12:29:54;;;;;;;18.77;10.80;;;22.60;1.60;;;;;;5108002;27;34177;-77
2022/03/25 12:32:22;;;;;;;18.20;10.77;;;22.60;1.10;;;;;;5107118;27;34133;-76
2022/03/25 12:35:13;;;;;;;20.50;12.05;;;22.70;1.00;;;;;;5107480;27;34357;-76
2022/03/25 12:38:08;;;;;;;19.77;11.68;;;22.80;1.00;;;;;;5106364;27;35775;-76
2022/03/25 12:40:35;;;;;;;21.27;11.85;;;22.90;1.00;;;;;;5123919;27;34031;-76
2022/03/25 12:43:03;;;;;;;17.67;10.82;;;22.80;1.00;;;;;;5107036;27;34210;-76
2022/03/25 12:45:37;;;;;;;17.05;11.02;;;22.70;1.00;;;;;;5090056;27;34498;-77
2022/03/25 12:48:24;;;;;;;20.42;10.73;;;22.60;1.00;;;;;;5089881;27;36467;-77
2022/03/25 12:50:53;;;;;;;19.63;10.73;;;22.60;1.00;;;;;;5125006;27;34148;-76